createdAt,value
2022-10-10T00:03:43.202Z,100.00
2022-10-10T00:09:10.518Z,100.00
2022-10-10T00:14:32.836Z,100.00
2022-10-10T00:19:55.477Z,100.00
2022-10-10T00:25:22.566Z,100.00
2022-10-10T00:30:45.601Z,100.00
2022-10-10T00:36:10.346Z,100.00
2022-10-10T00:41:32.838Z,100.00
2022-10-10T00:46:55.099Z,100.00
2022-10-10T00:52:17.378Z,100.00
2022-10-10T00:57:43.619Z,100.00
2022-10-10T01:03:06.396Z,100.00
2022-10-10T01:08:29.599Z,100.00
2022-10-10T01:14:14.862Z,100.00
2022-10-10T01:20:23.162Z,100.00
2022-10-10T01:26:17.077Z,100.00
2022-10-10T01:31:43.283Z,100.00
2022-10-10T01:37:42.717Z,100.00
2022-10-10T01:43:08.397Z,100.00
2022-10-10T01:48:32.558Z,100.00
2022-10-10T01:54:17.412Z,100.00
2022-10-10T02:00:01.445Z,100.00
2022-10-10T02:05:48.177Z,100.00
2022-10-10T02:11:12.176Z,100.00
2022-10-10T02:16:38.997Z,100.00
2022-10-10T02:22:02.718Z,100.00
2022-10-10T02:27:33.378Z,100.00
2022-10-10T02:33:02.584Z,100.00
2022-10-10T02:38:25.459Z,100.00
2022-10-10T02:43:48.605Z,100.00
2022-10-10T02:49:12.156Z,100.00
2022-10-10T02:54:34.304Z,100.00
2022-10-10T02:59:56.217Z,100.00
2022-10-10T03:05:18.128Z,100.00
2022-10-10T03:10:40.458Z,100.00
2022-10-10T03:16:02.751Z,100.00
2022-10-10T03:21:24.917Z,100.00
2022-10-10T03:26:47.256Z,100.00
2022-10-10T03:32:11.222Z,100.00
2022-10-10T03:37:33.354Z,100.00
2022-10-10T03:42:55.425Z,100.00
2022-10-10T03:48:17.656Z,100.00
2022-10-10T03:53:39.765Z,100.00
2022-10-10T03:59:04.278Z,100.00
2022-10-10T04:04:26.317Z,100.00
2022-10-10T04:09:48.038Z,100.00
2022-10-10T04:15:10.451Z,100.00
2022-10-10T04:20:32.830Z,100.00
2022-10-10T04:25:54.839Z,100.00
2022-10-10T04:31:16.616Z,100.00
2022-10-10T04:36:39.091Z,100.00
2022-10-10T04:42:01.401Z,100.00
2022-10-10T04:47:23.797Z,100.00
2022-10-10T04:52:46.118Z,100.00
2022-10-10T04:58:08.118Z,100.00
2022-10-10T05:03:32.499Z,100.00
2022-10-10T05:08:54.557Z,100.00
2022-10-10T05:14:19.070Z,100.00
2022-10-10T05:19:41.666Z,100.00
2022-10-10T05:25:04.981Z,100.00
2022-10-10T05:30:27.418Z,100.00
2022-10-10T05:35:49.819Z,100.00
2022-10-10T05:41:11.780Z,100.00
2022-10-10T05:46:34.126Z,100.00
2022-10-10T05:51:56.580Z,100.00
2022-10-10T05:57:18.856Z,100.00
2022-10-10T06:02:41.031Z,100.00
2022-10-10T06:08:09.173Z,100.00
2022-10-10T06:13:33.867Z,100.00
2022-10-10T06:18:57.758Z,100.00
2022-10-10T06:24:20.037Z,100.00
2022-10-10T06:29:42.406Z,100.00
2022-10-10T06:35:04.524Z,100.00
2022-10-10T06:40:26.702Z,100.00
2022-10-10T06:45:51.339Z,100.00
2022-10-10T06:51:18.080Z,100.00
2022-10-10T06:56:40.705Z,100.00
2022-10-10T07:02:05.679Z,100.00
2022-10-10T07:07:42.459Z,100.00
2022-10-10T07:13:06.718Z,100.00
2022-10-10T07:18:30.578Z,100.00
2022-10-10T07:23:56.259Z,100.00
2022-10-10T07:29:18.918Z,100.00
2022-10-10T07:34:43.980Z,100.00
2022-10-10T07:40:14.772Z,100.00
2022-10-10T07:45:41.499Z,100.00
2022-10-10T07:51:07.761Z,100.00
2022-10-10T07:56:32.788Z,100.00
2022-10-10T08:02:00.705Z,100.00
2022-10-10T08:07:26.106Z,100.00
2022-10-10T08:13:00.740Z,100.00
2022-10-10T08:18:23.580Z,100.00
2022-10-10T08:24:29.838Z,100.00
2022-10-10T08:29:53.742Z,100.00
2022-10-10T08:35:24.866Z,100.00
2022-10-10T08:40:54.139Z,100.00
2022-10-10T08:46:26.317Z,100.00
2022-10-10T08:51:55.382Z,100.00
2022-10-10T08:57:29.717Z,100.00
2022-10-10T09:02:59.438Z,97.99
2022-10-10T09:08:26.619Z,95.23
2022-10-10T09:13:54.881Z,93.38
2022-10-10T09:19:28.937Z,93.86
2022-10-10T09:24:57.064Z,93.71
2022-10-10T09:30:21.459Z,86.56
2022-10-10T09:35:44.115Z,88.54
2022-10-10T09:41:39.983Z,88.73
2022-10-10T09:53:35.329Z,88.07
2022-10-10T09:58:59.981Z,89.57
2022-10-10T10:04:47.819Z,90.90
2022-10-10T10:10:43.062Z,89.35
2022-10-10T10:16:27.337Z,83.84
2022-10-10T10:34:59.019Z,82.80
2022-10-10T10:40:29.747Z,83.90
2022-10-10T10:46:15.266Z,79.25
2022-10-10T10:51:55.841Z,82.63
2022-10-10T10:58:22.418Z,76.88
2022-10-10T11:05:21.274Z,77.01
2022-10-10T11:10:02.459Z,76.03
2022-10-10T11:16:04.704Z,76.49
2022-10-10T11:21:45.956Z,76.57
2022-10-10T11:27:18.585Z,77.99
2022-10-10T11:32:55.140Z,77.44
2022-10-10T11:38:46.929Z,75.39
2022-10-10T11:44:18.700Z,75.39
2022-10-10T11:50:24.736Z,77.12
2022-10-10T11:56:08.780Z,77.31
2022-10-10T12:01:50.294Z,76.78
2022-10-10T12:07:36.853Z,77.01
2022-10-10T12:19:23.082Z,77.46
2022-10-10T12:37:29.217Z,78.17
2022-10-10T12:43:00.579Z,76.70
2022-10-10T12:48:24.638Z,78.81
2022-10-10T12:53:52.957Z,76.59
2022-10-10T12:59:24.938Z,77.50
2022-10-10T13:04:49.859Z,78.25
2022-10-10T13:10:27.209Z,78.84
2022-10-10T13:15:54.780Z,79.45
2022-10-10T13:21:21.657Z,79.73
2022-10-10T13:26:50.379Z,80.99
2022-10-10T13:32:28.621Z,80.85
2022-10-10T13:38:06.219Z,82.80
2022-10-10T13:43:39.208Z,82.89
2022-10-10T14:08:32.565Z,92.54
2022-10-10T14:14:18.517Z,95.42
2022-10-10T14:19:58.499Z,97.89
2022-10-10T14:25:22.076Z,100.00
2022-10-10T14:30:46.939Z,100.00
2022-10-10T14:36:14.218Z,100.00
2022-10-10T14:41:37.637Z,100.00
2022-10-10T14:47:15.238Z,100.00
2022-10-10T14:52:38.739Z,100.00
2022-10-10T14:58:07.764Z,100.00
2022-10-10T15:03:36.388Z,100.00
2022-10-10T15:09:27.668Z,100.00
2022-10-10T15:14:57.004Z,100.00
2022-10-10T15:20:26.052Z,100.00
2022-10-10T15:26:01.290Z,100.00
2022-10-10T15:31:32.118Z,100.00
2022-10-10T15:36:54.325Z,100.00
2022-10-10T15:42:22.335Z,100.00
2022-10-10T15:47:46.771Z,100.00
2022-10-10T15:53:09.507Z,100.00
2022-10-10T15:58:31.862Z,100.00
2022-10-10T16:03:56.482Z,100.00
2022-10-10T16:09:28.290Z,100.00
2022-10-10T16:14:57.128Z,100.00
2022-10-10T16:20:27.217Z,100.00
2022-10-10T16:25:55.608Z,100.00
2022-10-10T16:31:34.058Z,100.00
2022-10-10T16:37:05.038Z,100.00
2022-10-10T16:42:27.240Z,100.00
2022-10-10T16:47:50.277Z,100.00
2022-10-10T16:53:12.778Z,100.00
2022-10-10T16:58:35.517Z,100.00
2022-10-10T17:04:00.409Z,100.00
2022-10-10T17:09:23.420Z,100.00
2022-10-10T17:14:45.598Z,100.00
2022-10-10T17:20:08.526Z,100.00
2022-10-10T17:25:32.356Z,100.00
2022-10-10T17:30:54.270Z,100.00
2022-10-10T17:36:22.108Z,100.00
2022-10-10T17:41:46.444Z,100.00
2022-10-10T17:47:08.797Z,100.00
2022-10-10T17:52:31.488Z,100.00
2022-10-10T17:57:53.699Z,100.00
2022-10-10T18:03:15.529Z,100.00
2022-10-10T18:08:37.308Z,100.00
2022-10-10T18:14:02.272Z,100.00
2022-10-10T18:19:24.476Z,100.00
2022-10-10T18:24:48.818Z,100.00
2022-10-10T18:30:10.900Z,100.00
2022-10-10T19:35:23.497Z,100.00
2022-10-10T19:40:47.238Z,100.00
2022-10-10T19:46:13.202Z,100.00
2022-10-10T19:51:34.997Z,100.00
2022-10-10T19:56:56.802Z,100.00
2022-10-10T20:02:18.851Z,100.00
2022-10-10T20:07:40.657Z,100.00
2022-10-10T20:13:05.240Z,100.00
2022-10-10T20:18:27.417Z,100.00
2022-10-10T20:23:50.813Z,100.00
2022-10-10T20:29:12.627Z,100.00
2022-10-10T20:34:42.837Z,100.00
2022-10-10T20:40:05.737Z,100.00
2022-10-10T20:45:28.241Z,100.00
2022-10-10T20:50:49.898Z,100.00
2022-10-10T20:56:13.657Z,100.00
2022-10-10T21:01:36.248Z,100.00
2022-10-10T21:06:58.098Z,100.00
2022-10-10T21:12:20.325Z,100.00
2022-10-10T21:17:42.657Z,100.00
2022-10-10T21:23:06.080Z,100.00
2022-10-10T21:28:28.513Z,100.00
2022-10-10T21:33:50.385Z,100.00
2022-10-10T21:39:23.525Z,100.00
2022-10-10T21:44:46.336Z,100.00
2022-10-10T21:50:11.013Z,100.00
2022-10-10T22:38:43.000Z,100.00
2022-10-10T22:44:05.160Z,100.00
2022-10-10T22:49:27.099Z,100.00
2022-10-10T22:54:49.159Z,100.00
2022-10-10T23:00:12.090Z,100.00
2022-10-10T23:05:33.998Z,100.00
2022-10-10T23:10:56.304Z,100.00
2022-10-10T23:16:18.338Z,100.00
2022-10-10T23:21:40.146Z,100.00
2022-10-10T23:27:02.329Z,100.00
2022-10-10T23:32:27.306Z,100.00
